sensor_id;sensor_type;location;lat;lon;timestamp;pressure;altitude;pressure_sealevel;temperature;humidity
20628;BME280;10473;42.734;24.258;2023-03-03T00:02:22;91868.69;;;5.18;79.98
20628;BME280;10473;42.734;24.258;2023-03-03T00:04:50;91874.59;;;5.27;79.36
20628;BME280;10473;42.734;24.258;2023-03-03T00:07:19;91871.72;;;5.32;79.01
20628;BME280;10473;42.734;24.258;2023-03-03T00:09:48;91868.88;;;5.37;79.04
20628;BME280;10473;42.734;24.258;2023-03-03T00:12:20;91864.81;;;5.39;78.66
20628;BME280;10473;42.734;24.258;2023-03-03T00:14:49;91868.00;;;5.33;78.84
20628;BME280;10473;42.734;24.258;2023-03-03T00:17:21;91868.00;;;5.33;77.84
20628;BME280;10473;42.734;24.258;2023-03-03T00:19:50;91871.50;;;5.37;78.82
20628;BME280;10473;42.734;24.258;2023-03-03T00:22:27;91868.69;;;5.30;78.60
20628;BME280;10473;42.734;24.258;2023-03-03T00:24:59;91868.22;;;5.28;78.57
20628;BME280;10473;42.734;24.258;2023-03-03T00:27:30;91861.22;;;5.32;79.41
20628;BME280;10473;42.734;24.258;2023-03-03T00:29:59;91866.91;;;5.34;79.34
20628;BME280;10473;42.734;24.258;2023-03-03T00:32:30;91861.22;;;5.32;79.06
20628;BME280;10473;42.734;24.258;2023-03-03T00:35:22;91840.34;;;5.23;78.51
20628;BME280;10473;42.734;24.258;2023-03-03T00:37:54;91847.78;;;5.21;79.05
20628;BME280;10473;42.734;24.258;2023-03-03T00:40:30;91833.03;;;5.17;78.32
20628;BME280;10473;42.734;24.258;2023-03-03T00:43:00;91842.22;;;5.23;77.95
20628;BME280;10473;42.734;24.258;2023-03-03T00:45:31;91837.97;;;5.18;78.48
20628;BME280;10473;42.734;24.258;2023-03-03T00:48:16;91833.28;;;5.12;79.11
20628;BME280;10473;42.734;24.258;2023-03-03T00:50:46;91828.69;;;5.09;78.58
20628;BME280;10473;42.734;24.258;2023-03-03T00:53:16;91822.94;;;4.91;79.32
20628;BME280;10473;42.734;24.258;2023-03-03T00:55:47;91821.72;;;5.01;80.02
20628;BME280;10473;42.734;24.258;2023-03-03T00:58:16;91817.53;;;5.00;79.49
20628;BME280;10473;42.734;24.258;2023-03-03T01:00:48;91820.53;;;4.86;80.00
20628;BME280;10473;42.734;24.258;2023-03-03T01:03:19;91796.41;;;4.81;80.02
20628;BME280;10473;42.734;24.258;2023-03-03T01:05:48;91797.94;;;4.82;80.21
20628;BME280;10473;42.734;24.258;2023-03-03T01:08:19;91803.19;;;4.82;80.45
20628;BME280;10473;42.734;24.258;2023-03-03T01:10:49;91807.13;;;4.64;81.85
20628;BME280;10473;42.734;24.258;2023-03-03T01:13:19;91792.94;;;4.53;82.06
20628;BME280;10473;42.734;24.258;2023-03-03T01:15:47;91782.34;;;4.37;82.71
20628;BME280;10473;42.734;24.258;2023-03-03T01:18:15;91789.69;;;4.44;83.30
20628;BME280;10473;42.734;24.258;2023-03-03T01:20:42;91782.25;;;4.34;83.88
20628;BME280;10473;42.734;24.258;2023-03-03T01:23:11;91781.81;;;4.20;83.25
20628;BME280;10473;42.734;24.258;2023-03-03T01:25:40;91785.09;;;4.29;84.99
20628;BME280;10473;42.734;24.258;2023-03-03T01:28:08;91790.25;;;4.25;84.54
20628;BME280;10473;42.734;24.258;2023-03-03T01:30:36;91776.16;;;4.06;85.00
20628;BME280;10473;42.734;24.258;2023-03-03T01:33:04;91790.25;;;4.25;85.77
20628;BME280;10473;42.734;24.258;2023-03-03T01:35:32;91786.63;;;4.30;84.82
20628;BME280;10473;42.734;24.258;2023-03-03T01:38:01;91777.00;;;4.34;84.95
20628;BME280;10473;42.734;24.258;2023-03-03T01:40:34;91791.88;;;4.42;85.15
20628;BME280;10473;42.734;24.258;2023-03-03T01:43:05;91781.19;;;4.23;84.85
20628;BME280;10473;42.734;24.258;2023-03-03T01:46:18;91782.03;;;4.39;84.40
20628;BME280;10473;42.734;24.258;2023-03-03T01:48:41;91775.91;;;4.47;84.53
20628;BME280;10473;42.734;24.258;2023-03-03T01:51:16;91782.34;;;4.49;84.62
20628;BME280;10473;42.734;24.258;2023-03-03T01:53:49;91774.25;;;4.42;84.69
20628;BME280;10473;42.734;24.258;2023-03-03T01:56:18;91779.41;;;4.39;83.98
20628;BME280;10473;42.734;24.258;2023-03-03T01:58:50;91774.94;;;4.39;84.82
20628;BME280;10473;42.734;24.258;2023-03-03T02:01:22;91774.91;;;4.51;84.08
20628;BME280;10473;42.734;24.258;2023-03-03T02:03:51;91771.00;;;4.45;83.44
20628;BME280;10473;42.734;24.258;2023-03-03T02:06:22;91770.88;;;4.54;84.13
20628;BME280;10473;42.734;24.258;2023-03-03T02:08:52;91778.72;;;4.66;83.36
20628;BME280;10473;42.734;24.258;2023-03-03T02:11:21;91776.44;;;4.64;83.71
20628;BME280;10473;42.734;24.258;2023-03-03T02:13:51;91775.00;;;4.67;83.11
20628;BME280;10473;42.734;24.258;2023-03-03T02:16:19;91778.09;;;4.57;83.67
20628;BME280;10473;42.734;24.258;2023-03-03T02:18:46;91775.22;;;4.62;84.27
20628;BME280;10473;42.734;24.258;2023-03-03T02:21:16;91768.47;;;4.49;83.07
20628;BME280;10473;42.734;24.258;2023-03-03T02:23:51;91779.59;;;4.58;83.66
20628;BME280;10473;42.734;24.258;2023-03-03T02:26:24;91763.31;;;4.52;84.52
20628;BME280;10473;42.734;24.258;2023-03-03T02:28:57;91761.78;;;4.51;83.57
20628;BME280;10473;42.734;24.258;2023-03-03T02:31:27;91761.06;;;4.51;84.49
20628;BME280;10473;42.734;24.258;2023-03-03T02:33:56;91760.81;;;4.44;84.71
20628;BME280;10473;42.734;24.258;2023-03-03T02:36:27;91754.47;;;4.45;84.48
20628;BME280;10473;42.734;24.258;2023-03-03T02:38:59;91762.16;;;4.38;85.11
20628;BME280;10473;42.734;24.258;2023-03-03T02:41:33;91756.69;;;4.43;85.13
20628;BME280;10473;42.734;24.258;2023-03-03T02:44:05;91765.19;;;4.40;84.45
20628;BME280;10473;42.734;24.258;2023-03-03T02:46:35;91761.25;;;4.46;85.28
20628;BME280;10473;42.734;24.258;2023-03-03T02:49:03;91769.00;;;4.54;83.99
20628;BME280;10473;42.734;24.258;2023-03-03T02:51:32;91763.44;;;4.56;83.80
20628;BME280;10473;42.734;24.258;2023-03-03T02:54:00;91756.91;;;4.38;83.93
20628;BME280;10473;42.734;24.258;2023-03-03T02:56:32;91758.19;;;4.44;84.64
20628;BME280;10473;42.734;24.258;2023-03-03T02:59:00;91757.66;;;4.38;83.90
20628;BME280;10473;42.734;24.258;2023-03-03T03:01:31;91761.69;;;4.36;85.04
20628;BME280;10473;42.734;24.258;2023-03-03T03:04:06;91759.09;;;4.36;84.00
20628;BME280;10473;42.734;24.258;2023-03-03T03:06:35;91758.53;;;4.42;84.37
20628;BME280;10473;42.734;24.258;2023-03-03T03:09:03;91743.56;;;4.43;85.59
20628;BME280;10473;42.734;24.258;2023-03-03T03:11:34;91739.19;;;4.47;84.13
20628;BME280;10473;42.734;24.258;2023-03-03T03:14:04;91748.03;;;4.42;83.84
20628;BME280;10473;42.734;24.258;2023-03-03T03:16:33;91741.59;;;4.52;85.51
20628;BME280;10473;42.734;24.258;2023-03-03T03:19:02;91743.34;;;4.48;84.70
20628;BME280;10473;42.734;24.258;2023-03-03T03:21:31;91745.41;;;4.54;84.00
20628;BME280;10473;42.734;24.258;2023-03-03T03:23:59;91749.88;;;4.54;84.01
20628;BME280;10473;42.734;24.258;2023-03-03T03:26:27;91741.59;;;4.52;84.51
20628;BME280;10473;42.734;24.258;2023-03-03T03:28:57;91734.59;;;4.44;84.45
20628;BME280;10473;42.734;24.258;2023-03-03T03:31:25;91732.00;;;4.32;85.35
20628;BME280;10473;42.734;24.258;2023-03-03T03:33:53;91734.41;;;4.37;84.50
20628;BME280;10473;42.734;24.258;2023-03-03T03:36:21;91742.59;;;4.35;85.16
20628;BME280;10473;42.734;24.258;2023-03-03T03:38:50;91728.06;;;4.26;84.36
20628;BME280;10473;42.734;24.258;2023-03-03T03:41:18;91741.09;;;4.22;85.48
20628;BME280;10473;42.734;24.258;2023-03-03T03:43:46;91749.19;;;4.05;85.66
20628;BME280;10473;42.734;24.258;2023-03-03T03:46:16;91731.38;;;4.11;85.76
20628;BME280;10473;42.734;24.258;2023-03-03T03:48:43;91741.97;;;4.02;86.09
20628;BME280;10473;42.734;24.258;2023-03-03T03:51:13;91733.47;;;4.05;86.72
20628;BME280;10473;42.734;24.258;2023-03-03T03:53:41;91738.69;;;4.17;86.37
20628;BME280;10473;42.734;24.258;2023-03-03T03:56:09;91745.38;;;4.03;87.76
20628;BME280;10473;42.734;24.258;2023-03-03T03:58:40;91743.63;;;4.07;86.50
20628;BME280;10473;42.734;24.258;2023-03-03T04:01:10;91741.75;;;4.07;86.37
20628;BME280;10473;42.734;24.258;2023-03-03T04:03:44;91737.81;;;4.01;87.52
20628;BME280;10473;42.734;24.258;2023-03-03T04:06:16;91739.25;;;3.99;87.55
20628;BME280;10473;42.734;24.258;2023-03-03T04:08:45;91738.16;;;3.88;88.16
20628;BME280;10473;42.734;24.258;2023-03-03T04:11:14;91709.78;;;3.78;87.02
20628;BME280;10473;42.734;24.258;2023-03-03T04:13:43;91738.81;;;3.97;87.88
20628;BME280;10473;42.734;24.258;2023-03-03T04:16:11;91741.44;;;3.97;87.81
20628;BME280;10473;42.734;24.258;2023-03-03T04:18:41;91753.56;;;4.01;87.79
20628;BME280;10473;42.734;24.258;2023-03-03T04:21:13;91739.03;;;3.92;87.09
20628;BME280;10473;42.734;24.258;2023-03-03T04:23:42;91742.97;;;3.98;88.68
20628;BME280;10473;42.734;24.258;2023-03-03T04:26:10;91739.25;;;3.87;88.25
20628;BME280;10473;42.734;24.258;2023-03-03T04:28:38;91739.44;;;3.82;87.74
20628;BME280;10473;42.734;24.258;2023-03-03T04:31:07;91750.28;;;3.92;87.16
20628;BME280;10473;42.734;24.258;2023-03-03T04:33:35;91751.78;;;3.93;87.63
20628;BME280;10473;42.734;24.258;2023-03-03T04:36:05;91751.56;;;3.74;88.07
20628;BME280;10473;42.734;24.258;2023-03-03T04:38:34;91750.72;;;3.82;88.10
20628;BME280;10473;42.734;24.258;2023-03-03T04:41:02;91727.47;;;3.69;88.79
20628;BME280;10473;42.734;24.258;2023-03-03T04:43:34;91750.16;;;3.77;88.53
20628;BME280;10473;42.734;24.258;2023-03-03T04:46:03;91744.13;;;3.64;88.60
20628;BME280;10473;42.734;24.258;2023-03-03T04:48:31;91747.88;;;3.75;88.57
20628;BME280;10473;42.734;24.258;2023-03-03T04:50:59;91756.47;;;3.76;89.06
20628;BME280;10473;42.734;24.258;2023-03-03T04:53:27;91745.38;;;3.79;88.75
20628;BME280;10473;42.734;24.258;2023-03-03T04:55:56;91739.34;;;3.78;88.23
20628;BME280;10473;42.734;24.258;2023-03-03T04:58:24;91756.06;;;3.86;88.55
20628;BME280;10473;42.734;24.258;2023-03-03T05:00:55;91755.06;;;3.78;88.35
20628;BME280;10473;42.734;24.258;2023-03-03T05:03:26;91747.31;;;3.82;88.50
20628;BME280;10473;42.734;24.258;2023-03-03T05:05:54;91757.25;;;3.76;88.14
20628;BME280;10473;42.734;24.258;2023-03-03T05:08:21;91746.78;;;3.76;88.06
20628;BME280;10473;42.734;24.258;2023-03-03T05:10:51;91757.56;;;3.75;89.07
20628;BME280;10473;42.734;24.258;2023-03-03T05:13:20;91732.38;;;3.70;88.92
20628;BME280;10473;42.734;24.258;2023-03-03T05:15:49;91754.09;;;3.95;88.08
20628;BME280;10473;42.734;24.258;2023-03-03T05:18:17;91764.91;;;3.81;88.94
20628;BME280;10473;42.734;24.258;2023-03-03T05:20:45;91767.50;;;3.93;89.19
20628;BME280;10473;42.734;24.258;2023-03-03T05:23:12;91757.47;;;3.83;88.50
20628;BME280;10473;42.734;24.258;2023-03-03T05:25:40;91768.72;;;3.96;88.63
20628;BME280;10473;42.734;24.258;2023-03-03T05:28:09;91767.75;;;4.00;88.02
20628;BME280;10473;42.734;24.258;2023-03-03T05:30:38;91772.16;;;3.52;89.22
20628;BME280;10473;42.734;24.258;2023-03-03T05:33:06;91767.84;;;3.68;89.21
20628;BME280;10473;42.734;24.258;2023-03-03T05:35:34;91774.16;;;3.67;89.23
20628;BME280;10473;42.734;24.258;2023-03-03T05:38:01;91753.19;;;3.67;89.90
20628;BME280;10473;42.734;24.258;2023-03-03T05:40:29;91762.59;;;3.80;89.01
20628;BME280;10473;42.734;24.258;2023-03-03T05:42:57;91773.56;;;3.49;89.49
20628;BME280;10473;42.734;24.258;2023-03-03T05:45:27;91764.97;;;3.61;90.72
20628;BME280;10473;42.734;24.258;2023-03-03T05:47:56;91773.94;;;3.60;89.93
20628;BME280;10473;42.734;24.258;2023-03-03T05:50:23;91772.41;;;3.59;90.55
20628;BME280;10473;42.734;24.258;2023-03-03T05:52:51;91775.25;;;3.54;89.76
20628;BME280;10473;42.734;24.258;2023-03-03T05:55:19;91772.59;;;3.42;89.91
20628;BME280;10473;42.734;24.258;2023-03-03T05:57:47;91770.41;;;3.44;89.67
20628;BME280;10473;42.734;24.258;2023-03-03T06:00:15;91763.53;;;3.39;89.66
20628;BME280;10473;42.734;24.258;2023-03-03T06:02:43;91762.78;;;3.51;89.72
20628;BME280;10473;42.734;24.258;2023-03-03T06:05:13;91751.88;;;3.49;88.86
20628;BME280;10473;42.734;24.258;2023-03-03T06:07:40;91757.38;;;3.68;88.68
20628;BME280;10473;42.734;24.258;2023-03-03T06:10:09;91759.00;;;3.72;88.68
20628;BME280;10473;42.734;24.258;2023-03-03T06:12:39;91758.69;;;3.74;87.79
20628;BME280;10473;42.734;24.258;2023-03-03T06:15:08;91757.56;;;3.75;87.56
20628;BME280;10473;42.734;24.258;2023-03-03T06:17:38;91766.06;;;3.72;87.46
20628;BME280;10473;42.734;24.258;2023-03-03T06:20:06;91733.75;;;3.44;88.01
20628;BME280;10473;42.734;24.258;2023-03-03T06:22:36;91771.09;;;3.53;87.32
20628;BME280;10473;42.734;24.258;2023-03-03T06:25:04;91778.53;;;3.63;88.13
20628;BME280;10473;42.734;24.258;2023-03-03T06:27:31;91773.50;;;3.70;87.94
20628;BME280;10473;42.734;24.258;2023-03-03T06:29:59;91772.88;;;3.73;88.18
20628;BME280;10473;42.734;24.258;2023-03-03T06:32:27;91773.78;;;3.44;88.55
20628;BME280;10473;42.734;24.258;2023-03-03T06:34:55;91782.84;;;3.47;88.72
20628;BME280;10473;42.734;24.258;2023-03-03T06:37:22;91782.00;;;3.55;88.79
20628;BME280;10473;42.734;24.258;2023-03-03T06:39:51;91786.59;;;3.58;89.19
20628;BME280;10473;42.734;24.258;2023-03-03T06:42:19;91778.28;;;3.56;89.20
20628;BME280;10473;42.734;24.258;2023-03-03T06:44:48;91788.66;;;3.52;89.20
20628;BME280;10473;42.734;24.258;2023-03-03T06:47:16;91791.16;;;3.49;88.73
20628;BME280;10473;42.734;24.258;2023-03-03T06:49:44;91776.97;;;3.50;88.17
20628;BME280;10473;42.734;24.258;2023-03-03T06:52:13;91778.47;;;3.39;88.63
20628;BME280;10473;42.734;24.258;2023-03-03T06:54:41;91780.91;;;3.56;89.96
20628;BME280;10473;42.734;24.258;2023-03-03T06:57:16;91784.41;;;3.60;88.63
20628;BME280;10473;42.734;24.258;2023-03-03T06:59:46;91772.16;;;3.52;88.97
20628;BME280;10473;42.734;24.258;2023-03-03T07:02:16;91779.84;;;3.69;88.78
20628;BME280;10473;42.734;24.258;2023-03-03T07:04:44;91774.59;;;3.69;88.97
20628;BME280;10473;42.734;24.258;2023-03-03T07:07:17;91776.38;;;3.89;88.75
20628;BME280;10473;42.734;24.258;2023-03-03T07:10:10;91768.94;;;3.91;87.87
20628;BME280;10473;42.734;24.258;2023-03-03T07:12:41;91781.94;;;4.11;87.45
20628;BME280;10473;42.734;24.258;2023-03-03T07:15:14;91773.00;;;4.24;86.26
20628;BME280;10473;42.734;24.258;2023-03-03T07:17:44;91783.56;;;4.28;85.35
20628;BME280;10473;42.734;24.258;2023-03-03T07:20:18;91784.31;;;4.28;85.15
20628;BME280;10473;42.734;24.258;2023-03-03T07:22:46;91775.69;;;4.40;85.34
20628;BME280;10473;42.734;24.258;2023-03-03T07:25:26;91778.72;;;4.54;84.40
20628;BME280;10473;42.734;24.258;2023-03-03T07:27:59;91768.69;;;4.44;84.09
20628;BME280;10473;42.734;24.258;2023-03-03T07:30:28;91780.19;;;4.15;84.41
20628;BME280;10473;42.734;24.258;2023-03-03T07:32:57;91777.66;;;4.43;84.81
20628;BME280;10473;42.734;24.258;2023-03-03T07:35:40;91779.31;;;4.35;84.25
20628;BME280;10473;42.734;24.258;2023-03-03T07:38:23;91778.97;;;4.61;83.06
20628;BME280;10473;42.734;24.258;2023-03-03T07:40:53;91775.00;;;4.67;82.83
20628;BME280;10473;42.734;24.258;2023-03-03T07:43:38;91776.72;;;4.75;82.58
20628;BME280;10473;42.734;24.258;2023-03-03T07:46:23;91772.88;;;4.84;83.78
20628;BME280;10473;42.734;24.258;2023-03-03T07:48:53;91775.19;;;4.86;82.77
20628;BME280;10473;42.734;24.258;2023-03-03T07:51:25;91778.16;;;5.00;82.40
20628;BME280;10473;42.734;24.258;2023-03-03T07:53:55;91767.78;;;5.03;83.08
20628;BME280;10473;42.734;24.258;2023-03-03T07:56:29;91766.84;;;4.96;82.64
20628;BME280;10473;42.734;24.258;2023-03-03T07:58:59;91766.53;;;5.13;81.40
20628;BME280;10473;42.734;24.258;2023-03-03T08:01:37;91769.16;;;5.13;82.91
20628;BME280;10473;42.734;24.258;2023-03-03T08:04:16;91765.72;;;4.97;83.06
20628;BME280;10473;42.734;24.258;2023-03-03T08:06:52;91767.88;;;5.07;82.81
20628;BME280;10473;42.734;24.258;2023-03-03T08:09:44;91773.75;;;5.16;82.64
20628;BME280;10473;42.734;24.258;2023-03-03T08:12:28;91776.16;;;5.09;83.07
20628;BME280;10473;42.734;24.258;2023-03-03T08:15:12;91767.63;;;5.12;82.04
20628;BME280;10473;42.734;24.258;2023-03-03T08:17:42;91783.16;;;5.17;83.46
20628;BME280;10473;42.734;24.258;2023-03-03T08:20:38;91773.31;;;5.14;82.51
20628;BME280;10473;42.734;24.258;2023-03-03T08:23:07;91770.19;;;5.08;82.11
20628;BME280;10473;42.734;24.258;2023-03-03T08:25:35;91748.47;;;4.84;82.63
20628;BME280;10473;42.734;24.258;2023-03-03T08:28:03;91769.00;;;4.94;83.39
20628;BME280;10473;42.734;24.258;2023-03-03T08:30:32;91764.22;;;4.84;83.92
20628;BME280;10473;42.734;24.258;2023-03-03T08:33:00;91763.75;;;4.94;83.60
20628;BME280;10473;42.734;24.258;2023-03-03T08:35:28;91766.84;;;4.96;84.32
20628;BME280;10473;42.734;24.258;2023-03-03T08:37:56;91755.16;;;4.81;83.98
20628;BME280;10473;42.734;24.258;2023-03-03T08:40:24;91759.19;;;4.91;83.41
20628;BME280;10473;42.734;24.258;2023-03-03T08:42:51;91764.63;;;4.98;83.17
20628;BME280;10473;42.734;24.258;2023-03-03T08:45:20;91740.53;;;4.80;82.61
20628;BME280;10473;42.734;24.258;2023-03-03T08:47:49;91753.88;;;4.75;83.24
20628;BME280;10473;42.734;24.258;2023-03-03T08:50:18;91762.53;;;4.76;83.36
20628;BME280;10473;42.734;24.258;2023-03-03T08:52:46;91751.25;;;4.75;83.31
20628;BME280;10473;42.734;24.258;2023-03-03T08:55:13;91759.66;;;4.81;84.18
20628;BME280;10473;42.734;24.258;2023-03-03T08:57:41;91753.94;;;4.91;84.36
20628;BME280;10473;42.734;24.258;2023-03-03T09:00:12;91734.25;;;4.85;84.18
20628;BME280;10473;42.734;24.258;2023-03-03T09:02:42;91750.31;;;4.95;83.77
20628;BME280;10473;42.734;24.258;2023-03-03T09:05:12;91761.13;;;4.94;83.62
20628;BME280;10473;42.734;24.258;2023-03-03T09:07:40;91746.34;;;5.01;84.08
20628;BME280;10473;42.734;24.258;2023-03-03T09:10:09;91747.78;;;4.99;84.10
20628;BME280;10473;42.734;24.258;2023-03-03T09:12:39;91748.69;;;4.91;84.34
20628;BME280;10473;42.734;24.258;2023-03-03T09:15:15;91743.00;;;4.89;83.03
20628;BME280;10473;42.734;24.258;2023-03-03T09:17:45;91738.19;;;4.91;84.95
20628;BME280;10473;42.734;24.258;2023-03-03T09:20:30;91745.38;;;4.94;84.29
20628;BME280;10473;42.734;24.258;2023-03-03T09:23:24;91735.69;;;4.82;84.91
20628;BME280;10473;42.734;24.258;2023-03-03T09:25:54;91753.66;;;5.08;84.00
20628;BME280;10473;42.734;24.258;2023-03-03T09:28:26;91744.66;;;5.09;83.60
20628;BME280;10473;42.734;24.258;2023-03-03T09:30:57;91739.63;;;5.16;83.74
20628;BME280;10473;42.734;24.258;2023-03-03T09:33:27;91738.59;;;5.20;83.33
20628;BME280;10473;42.734;24.258;2023-03-03T09:36:10;91736.66;;;5.17;84.45
20628;BME280;10473;42.734;24.258;2023-03-03T09:38:42;91735.94;;;5.32;84.22
20628;BME280;10473;42.734;24.258;2023-03-03T09:41:35;91738.09;;;5.15;84.05
20628;BME280;10473;42.734;24.258;2023-03-03T09:44:19;91734.06;;;5.33;84.75
20628;BME280;10473;42.734;24.258;2023-03-03T09:47:10;91727.72;;;5.49;84.09
20628;BME280;10473;42.734;24.258;2023-03-03T09:49:46;91736.13;;;5.55;83.56
20628;BME280;10473;42.734;24.258;2023-03-03T09:52:32;91726.63;;;5.66;82.26
20628;BME280;10473;42.734;24.258;2023-03-03T09:55:17;91737.31;;;5.73;82.43
20628;BME280;10473;42.734;24.258;2023-03-03T09:58:00;91733.56;;;5.74;82.43
20628;BME280;10473;42.734;24.258;2023-03-03T10:00:40;91730.13;;;5.85;81.22
20628;BME280;10473;42.734;24.258;2023-03-03T10:03:34;91731.91;;;5.97;80.73
20628;BME280;10473;42.734;24.258;2023-03-03T10:06:12;91727.09;;;5.83;81.44
20628;BME280;10473;42.734;24.258;2023-03-03T10:08:56;91728.34;;;6.05;81.46
20628;BME280;10473;42.734;24.258;2023-03-03T10:11:29;91714.47;;;5.89;81.96
20628;BME280;10473;42.734;24.258;2023-03-03T10:14:14;91718.16;;;5.88;82.05
20628;BME280;10473;42.734;24.258;2023-03-03T10:16:52;91718.84;;;6.00;81.16
20628;BME280;10473;42.734;24.258;2023-03-03T10:19:36;91715.78;;;6.14;80.79
20628;BME280;10473;42.734;24.258;2023-03-03T10:22:19;91709.34;;;6.11;81.37
20628;BME280;10473;42.734;24.258;2023-03-03T10:25:02;91709.03;;;6.32;80.81
20628;BME280;10473;42.734;24.258;2023-03-03T10:27:50;91709.88;;;6.36;79.47
20628;BME280;10473;42.734;24.258;2023-03-03T10:30:27;91709.50;;;6.03;78.70
20628;BME280;10473;42.734;24.258;2023-03-03T10:33:01;91696.41;;;6.22;80.71
20628;BME280;10473;42.734;24.258;2023-03-03T10:35:44;91686.53;;;6.34;79.37
20628;BME280;10473;42.734;24.258;2023-03-03T10:38:26;91704.59;;;6.51;79.81
20628;BME280;10473;42.734;24.258;2023-03-03T10:41:10;91694.50;;;6.38;79.61
20628;BME280;10473;42.734;24.258;2023-03-03T10:47:05;91697.31;;;6.64;79.04
20628;BME280;10473;42.734;24.258;2023-03-03T10:49:53;91688.72;;;6.67;80.76
20628;BME280;10473;42.734;24.258;2023-03-03T10:52:33;91692.34;;;6.78;79.32
20628;BME280;10473;42.734;24.258;2023-03-03T10:55:18;91661.09;;;6.57;78.51
20628;BME280;10473;42.734;24.258;2023-03-03T10:58:02;91686.25;;;6.74;78.22
20628;BME280;10473;42.734;24.258;2023-03-03T11:00:38;91686.25;;;6.74;77.63
20628;BME280;10473;42.734;24.258;2023-03-03T11:03:39;91683.19;;;6.72;78.96
20628;BME280;10473;42.734;24.258;2023-03-03T11:06:15;91675.69;;;6.55;78.75
20628;BME280;10473;42.734;24.258;2023-03-03T11:08:51;91655.16;;;6.60;79.05
20628;BME280;10473;42.734;24.258;2023-03-03T11:11:27;91672.81;;;6.79;78.88
20628;BME280;10473;42.734;24.258;2023-03-03T11:14:04;91672.03;;;6.78;77.86
20628;BME280;10473;42.734;24.258;2023-03-03T11:16:44;91671.69;;;6.80;77.50
20628;BME280;10473;42.734;24.258;2023-03-03T11:19:32;91672.66;;;6.72;78.34
20628;BME280;10473;42.734;24.258;2023-03-03T11:22:13;91672.53;;;6.65;79.05
20628;BME280;10473;42.734;24.258;2023-03-03T11:24:59;91658.81;;;6.56;78.54
20628;BME280;10473;42.734;24.258;2023-03-03T11:27:37;91672.47;;;6.61;78.67
20628;BME280;10473;42.734;24.258;2023-03-03T11:30:32;91658.66;;;6.49;79.59
20628;BME280;10473;42.734;24.258;2023-03-03T11:33:03;91661.31;;;6.49;80.65
20628;BME280;10473;42.734;24.258;2023-03-03T11:35:39;91661.72;;;6.51;79.90
20628;BME280;10473;42.734;24.258;2023-03-03T11:38:22;91664.34;;;6.51;80.61
20628;BME280;10473;42.734;24.258;2023-03-03T11:40:54;91665.53;;;6.53;79.97
20628;BME280;10473;42.734;24.258;2023-03-03T11:43:28;91661.97;;;6.46;80.79
20628;BME280;10473;42.734;24.258;2023-03-03T11:46:04;91653.66;;;6.25;80.98
20628;BME280;10473;42.734;24.258;2023-03-03T11:48:38;91660.56;;;6.33;81.23
20628;BME280;10473;42.734;24.258;2023-03-03T11:51:13;91651.38;;;6.23;80.55
20628;BME280;10473;42.734;24.258;2023-03-03T11:53:53;91646.88;;;6.24;81.60
20628;BME280;10473;42.734;24.258;2023-03-03T11:56:27;91644.66;;;6.26;80.82
20628;BME280;10473;42.734;24.258;2023-03-03T11:59:12;91645.50;;;6.30;80.89
20628;BME280;10473;42.734;24.258;2023-03-03T12:01:48;91640.22;;;6.30;81.40
20628;BME280;10473;42.734;24.258;2023-03-03T12:04:21;91634.97;;;6.30;81.57
20628;BME280;10473;42.734;24.258;2023-03-03T12:07:04;91644.78;;;6.33;81.55
20628;BME280;10473;42.734;24.258;2023-03-03T12:09:39;91633.59;;;6.36;80.91
20628;BME280;10473;42.734;24.258;2023-03-03T12:12:13;91647.31;;;6.45;82.04
20628;BME280;10473;42.734;24.258;2023-03-03T12:14:56;91642.38;;;6.43;81.36
20628;BME280;10473;42.734;24.258;2023-03-03T12:17:40;91623.47;;;6.38;81.37
20628;BME280;10473;42.734;24.258;2023-03-03T12:20:17;91636.72;;;6.41;81.42
20628;BME280;10473;42.734;24.258;2023-03-03T12:23:00;91641.28;;;6.44;81.46
20628;BME280;10473;42.734;24.258;2023-03-03T12:25:35;91624.38;;;6.26;81.88
20628;BME280;10473;42.734;24.258;2023-03-03T12:28:08;91641.13;;;6.37;81.60
20628;BME280;10473;42.734;24.258;2023-03-03T12:30:51;91656.09;;;6.33;81.81
20628;BME280;10473;42.734;24.258;2023-03-03T12:33:27;91653.13;;;6.35;81.19
20628;BME280;10473;42.734;24.258;2023-03-03T12:36:08;91656.75;;;6.30;81.20
20628;BME280;10473;42.734;24.258;2023-03-03T12:38:46;91654.34;;;6.22;82.00
20628;BME280;10473;42.734;24.258;2023-03-03T12:41:24;91655.63;;;6.12;81.96
20628;BME280;10473;42.734;24.258;2023-03-03T12:44:01;91657.16;;;6.13;83.97
20628;BME280;10473;42.734;24.258;2023-03-03T12:46:42;91644.34;;;6.12;82.55
20628;BME280;10473;42.734;24.258;2023-03-03T12:49:13;91656.50;;;6.16;81.97
20628;BME280;10473;42.734;24.258;2023-03-03T12:52:00;91657.75;;;6.07;83.34
20628;BME280;10473;42.734;24.258;2023-03-03T12:54:52;91650.31;;;6.09;82.79
20628;BME280;10473;42.734;24.258;2023-03-03T12:57:59;91648.09;;;6.11;82.65
20628;BME280;10473;42.734;24.258;2023-03-03T13:00:39;91651.03;;;6.25;81.96
20628;BME280;10473;42.734;24.258;2023-03-03T13:03:13;91645.00;;;6.24;82.65
20628;BME280;10473;42.734;24.258;2023-03-03T13:05:52;91641.75;;;6.31;82.10
20628;BME280;10473;42.734;24.258;2023-03-03T13:08:32;91635.19;;;6.40;82.49
20628;BME280;10473;42.734;24.258;2023-03-03T13:11:18;91634.72;;;6.54;81.56
20628;BME280;10473;42.734;24.258;2023-03-03T13:13:52;91636.34;;;6.62;80.41
20628;BME280;10473;42.734;24.258;2023-03-03T13:16:27;91633.44;;;6.67;79.88
20628;BME280;10473;42.734;24.258;2023-03-03T13:19:01;91621.41;;;6.66;80.21
20628;BME280;10473;42.734;24.258;2023-03-03T13:21:35;91627.34;;;6.82;79.68
20628;BME280;10473;42.734;24.258;2023-03-03T13:24:15;91630.53;;;6.91;78.78
20628;BME280;10473;42.734;24.258;2023-03-03T13:26:48;91621.94;;;6.94;79.22
20628;BME280;10473;42.734;24.258;2023-03-03T13:29:24;91632.38;;;7.09;80.32
20628;BME280;10473;42.734;24.258;2023-03-03T13:31:55;91634.56;;;7.26;79.37
20628;BME280;10473;42.734;24.258;2023-03-03T13:34:33;91619.63;;;7.34;78.85
20628;BME280;10473;42.734;24.258;2023-03-03T13:37:10;91627.03;;;7.51;78.88